createdAt,value
2022-12-18T00:01:39.442Z,15.73
2022-12-18T00:04:07.672Z,15.70
2022-12-18T00:06:36.358Z,15.64
2022-12-18T00:09:04.420Z,15.63
2022-12-18T00:11:32.509Z,15.65
2022-12-18T00:14:00.573Z,15.54
2022-12-18T00:16:29.412Z,16.04
2022-12-18T00:19:01.068Z,15.91
2022-12-18T00:21:29.759Z,15.92
2022-12-18T00:23:57.414Z,15.86
2022-12-18T00:26:30.542Z,15.93
2022-12-18T00:29:01.460Z,15.64
2022-12-18T00:31:29.167Z,15.50
2022-12-18T00:33:56.588Z,15.98
2022-12-18T00:36:26.351Z,15.46
2022-12-18T00:38:54.839Z,16.12
2022-12-18T00:41:21.713Z,15.93
2022-12-18T00:43:48.422Z,15.79
2022-12-18T00:46:15.244Z,16.06
2022-12-18T00:48:42.048Z,16.00
2022-12-18T00:51:08.759Z,15.75
2022-12-18T00:53:35.789Z,15.64
2022-12-18T00:56:02.747Z,15.88
2022-12-18T00:58:29.474Z,15.70
2022-12-18T01:00:56.278Z,15.78
2022-12-18T01:03:23.062Z,16.03
2022-12-18T01:05:49.731Z,16.04
2022-12-18T01:08:16.453Z,15.77
2022-12-18T01:10:43.281Z,15.73
2022-12-18T01:13:10.000Z,15.73
2022-12-18T01:15:37.071Z,15.85
2022-12-18T01:18:07.524Z,16.28
2022-12-18T01:20:34.166Z,16.20
2022-12-18T01:23:00.879Z,15.79
2022-12-18T01:25:27.616Z,16.23
2022-12-18T01:27:54.358Z,15.86
2022-12-18T01:30:21.248Z,15.93
2022-12-18T01:32:47.961Z,16.16
2022-12-18T01:35:14.709Z,16.01
2022-12-18T01:37:41.413Z,15.77
2022-12-18T01:40:08.872Z,15.86
2022-12-18T01:42:35.739Z,15.79
2022-12-18T01:45:17.748Z,15.80
2022-12-18T01:47:51.986Z,16.03
2022-12-18T01:50:18.755Z,15.47
2022-12-18T01:52:52.623Z,15.77
2022-12-18T01:55:23.288Z,15.32
2022-12-18T01:57:55.351Z,15.40
2022-12-18T02:00:23.653Z,15.35
2022-12-18T02:02:50.779Z,15.76
2022-12-18T02:05:43.690Z,15.72
2022-12-18T02:08:31.882Z,15.93
2022-12-18T02:11:45.810Z,15.97
2022-12-18T02:14:47.515Z,16.09
2022-12-18T02:17:47.774Z,15.75
2022-12-18T02:20:37.609Z,16.03
2022-12-18T02:23:22.627Z,15.72
2022-12-18T02:26:10.820Z,15.69
2022-12-18T02:28:44.105Z,16.18
2022-12-18T02:31:15.797Z,15.77
2022-12-18T02:33:45.836Z,15.89
2022-12-18T02:36:14.409Z,15.94
2022-12-18T02:38:43.477Z,16.13
2022-12-18T02:41:11.355Z,15.95
2022-12-18T02:43:38.391Z,15.63
2022-12-18T02:46:30.973Z,16.04
2022-12-18T02:49:12.823Z,15.65
2022-12-18T02:51:48.557Z,15.74
2022-12-18T02:54:28.153Z,15.88
2022-12-18T02:57:04.656Z,15.82
2022-12-18T02:59:45.803Z,15.85
2022-12-18T03:02:27.955Z,15.63
2022-12-18T03:05:06.362Z,15.69
2022-12-18T03:08:25.175Z,15.85
2022-12-18T03:11:03.676Z,16.06
2022-12-18T03:13:37.533Z,15.90
2022-12-18T03:16:08.651Z,16.10
2022-12-18T03:18:43.715Z,16.07
2022-12-18T03:21:12.469Z,16.10
2022-12-18T03:23:48.553Z,15.67
2022-12-18T03:26:20.108Z,15.68
2022-12-18T03:28:52.244Z,15.97
2022-12-18T03:31:21.361Z,15.90
2022-12-18T03:33:56.853Z,15.52
2022-12-18T03:36:24.514Z,15.87
2022-12-18T03:38:52.395Z,15.67
2022-12-18T03:41:43.199Z,15.83
2022-12-18T03:44:14.127Z,15.65
2022-12-18T03:46:56.644Z,15.52
2022-12-18T03:49:36.759Z,15.61
2022-12-18T03:52:09.481Z,15.72
2022-12-18T03:54:37.607Z,15.56
2022-12-18T03:57:12.927Z,15.61
2022-12-18T03:59:41.353Z,15.58
2022-12-18T04:02:09.547Z,15.49
2022-12-18T04:04:40.598Z,15.61
2022-12-18T04:07:08.271Z,15.59
2022-12-18T04:09:36.847Z,15.51
2022-12-18T04:12:03.903Z,15.97
2022-12-18T04:14:30.554Z,15.68
2022-12-18T04:16:57.211Z,15.78
2022-12-18T04:19:23.897Z,16.01
2022-12-18T04:21:50.605Z,15.62
2022-12-18T04:24:17.923Z,15.77
2022-12-18T04:26:44.609Z,15.74
2022-12-18T04:29:11.501Z,15.80
2022-12-18T04:31:38.426Z,15.84
2022-12-18T04:34:05.189Z,15.50
2022-12-18T04:36:31.928Z,15.77
2022-12-18T04:38:58.729Z,15.49
2022-12-18T04:41:25.447Z,15.76
2022-12-18T04:43:52.140Z,15.58
2022-12-18T04:46:19.032Z,15.77
2022-12-18T04:48:47.200Z,15.51
2022-12-18T04:51:14.075Z,15.82
2022-12-18T04:53:41.157Z,15.62
2022-12-18T04:56:14.153Z,15.79
2022-12-18T04:58:42.217Z,15.87
2022-12-18T05:01:09.591Z,15.42
2022-12-18T05:03:37.843Z,15.70
2022-12-18T05:06:06.045Z,15.44
2022-12-18T05:08:33.699Z,15.36
2022-12-18T05:11:03.180Z,15.24
2022-12-18T05:13:31.171Z,15.59
2022-12-18T05:15:58.484Z,15.31
2022-12-18T05:18:25.859Z,15.54
2022-12-18T05:20:54.443Z,15.24
2022-12-18T05:23:22.926Z,15.57
2022-12-18T05:25:57.628Z,15.63
2022-12-18T05:28:26.434Z,15.89
2022-12-18T05:30:55.208Z,16.03
2022-12-18T05:33:23.989Z,15.94
2022-12-18T05:35:55.419Z,15.88
2022-12-18T05:38:23.220Z,16.11
2022-12-18T05:40:51.327Z,16.09
2022-12-18T05:43:21.435Z,15.69
2022-12-18T05:45:48.958Z,15.72
2022-12-18T05:48:16.405Z,15.82
2022-12-18T05:50:44.872Z,15.96
2022-12-18T05:53:11.977Z,15.78
2022-12-18T05:55:41.127Z,15.37
2022-12-18T05:58:10.074Z,15.54
2022-12-18T06:00:39.734Z,15.05
2022-12-18T06:03:07.802Z,15.38
2022-12-18T06:05:43.763Z,15.31
2022-12-18T06:08:11.484Z,15.36
2022-12-18T06:10:38.585Z,15.38
2022-12-18T06:13:24.103Z,15.30
2022-12-18T06:15:51.142Z,14.87
2022-12-18T06:18:17.996Z,14.81
2022-12-18T06:20:45.219Z,14.86
2022-12-18T06:23:11.984Z,15.30
2022-12-18T06:25:40.403Z,14.92
2022-12-18T06:28:07.241Z,15.45
2022-12-18T06:30:34.168Z,15.34
2022-12-18T06:33:00.884Z,15.06
2022-12-18T06:35:27.595Z,15.13
2022-12-18T06:37:54.377Z,14.92
2022-12-18T06:40:22.224Z,14.93
2022-12-18T06:42:49.346Z,14.94
2022-12-18T06:45:16.847Z,15.22
2022-12-18T06:47:43.833Z,14.99
2022-12-18T06:50:11.095Z,15.15
2022-12-18T06:52:38.108Z,15.02
2022-12-18T06:55:05.832Z,15.15
2022-12-18T06:57:35.419Z,15.21
2022-12-18T07:00:02.204Z,15.18
2022-12-18T07:02:29.072Z,15.05
2022-12-18T07:04:55.787Z,14.93
2022-12-18T07:07:22.708Z,15.01
2022-12-18T07:09:51.180Z,15.09
2022-12-18T07:12:18.400Z,15.13
2022-12-18T07:14:45.209Z,15.30
2022-12-18T07:17:11.921Z,14.88
2022-12-18T07:19:38.683Z,15.14
2022-12-18T07:22:05.413Z,15.13
2022-12-18T07:24:34.387Z,15.13
2022-12-18T07:27:01.956Z,15.27
2022-12-18T07:29:28.800Z,15.13
2022-12-18T07:31:55.583Z,15.02
2022-12-18T07:34:22.467Z,15.07
2022-12-18T07:36:49.500Z,15.41
2022-12-18T07:42:00.491Z,15.54
2022-12-18T07:44:27.198Z,15.47
2022-12-18T07:46:53.878Z,15.42
2022-12-18T07:49:20.616Z,15.59
2022-12-18T07:51:47.403Z,15.41
2022-12-18T07:54:14.155Z,15.22
2022-12-18T07:56:41.177Z,15.64
2022-12-18T07:59:07.884Z,15.43
2022-12-18T08:01:35.091Z,15.36
2022-12-18T08:04:01.926Z,15.50
2022-12-18T08:06:28.595Z,15.25
2022-12-18T08:08:56.850Z,15.13
2022-12-18T08:11:26.040Z,15.12
2022-12-18T08:13:53.253Z,15.36
2022-12-18T08:16:20.892Z,15.26
2022-12-18T08:18:48.642Z,15.32
2022-12-18T08:21:20.438Z,14.92
2022-12-18T08:23:48.597Z,15.31
2022-12-18T08:26:16.526Z,15.00
2022-12-18T08:28:43.500Z,15.13
2022-12-18T08:31:10.806Z,14.73
2022-12-18T08:33:39.418Z,15.10
2022-12-18T08:36:07.059Z,15.50
2022-12-18T08:38:34.847Z,16.18
2022-12-18T08:41:02.289Z,17.19
2022-12-18T08:43:30.220Z,17.43
2022-12-18T08:45:58.021Z,17.02
2022-12-18T08:48:24.850Z,17.01
2022-12-18T08:50:58.692Z,16.95
2022-12-18T08:53:32.779Z,16.74
2022-12-18T08:56:02.371Z,16.20
2022-12-18T08:58:29.161Z,15.98
2022-12-18T09:01:00.326Z,16.69
2022-12-18T09:03:27.045Z,16.86
2022-12-18T09:05:53.746Z,16.78
2022-12-18T09:08:20.542Z,16.93
2022-12-18T09:10:50.470Z,16.59
2022-12-18T09:13:18.113Z,17.01
2022-12-18T09:15:47.395Z,16.88
2022-12-18T09:18:15.646Z,16.96
2022-12-18T09:20:42.587Z,17.01
2022-12-18T09:23:12.911Z,16.79
2022-12-18T09:25:40.008Z,16.75
2022-12-18T09:28:15.163Z,16.69
2022-12-18T09:30:45.043Z,16.44
2022-12-18T09:33:11.796Z,16.72
2022-12-18T09:35:43.877Z,16.50
2022-12-18T09:38:19.574Z,16.77
2022-12-18T09:40:50.328Z,16.49
2022-12-18T09:43:40.965Z,16.30
2022-12-18T09:46:09.255Z,16.59
2022-12-18T09:48:46.217Z,16.58
2022-12-18T09:51:20.898Z,16.24
2022-12-18T09:54:00.553Z,16.70
2022-12-18T09:56:31.695Z,16.70
2022-12-18T09:58:59.578Z,16.64
2022-12-18T10:01:37.674Z,16.82
2022-12-18T10:04:10.655Z,16.57
2022-12-18T10:06:47.298Z,16.67
2022-12-18T10:09:44.377Z,16.18
2022-12-18T10:12:47.220Z,16.08
2022-12-18T10:15:30.813Z,15.68
2022-12-18T10:18:41.321Z,15.80
2022-12-18T10:21:13.369Z,15.97
2022-12-18T10:24:12.326Z,15.37
2022-12-18T10:26:39.622Z,15.57
2022-12-18T10:29:14.229Z,15.29
2022-12-18T10:31:41.331Z,14.97
2022-12-18T10:34:26.181Z,15.18
2022-12-18T10:36:52.855Z,15.25
2022-12-18T10:39:25.608Z,14.88
2022-12-18T10:41:52.361Z,15.16
2022-12-18T10:44:24.031Z,14.98
2022-12-18T10:46:55.277Z,14.78
2022-12-18T10:49:31.403Z,14.79
2022-12-18T10:52:43.458Z,15.27
2022-12-18T10:55:18.644Z,15.24
2022-12-18T10:57:45.908Z,15.28
2022-12-18T11:00:26.196Z,15.28
2022-12-18T11:02:53.616Z,15.26
2022-12-18T11:05:46.951Z,15.43
2022-12-18T11:08:22.435Z,15.26
2022-12-18T11:10:50.347Z,15.25
2022-12-18T11:13:21.829Z,15.72
2022-12-18T11:15:49.661Z,15.44
2022-12-18T11:18:26.153Z,15.60
2022-12-18T11:20:58.639Z,15.29
2022-12-18T11:23:27.032Z,15.52
2022-12-18T11:25:59.602Z,15.42
2022-12-18T11:28:27.822Z,15.17
2022-12-18T11:31:28.144Z,15.46
2022-12-18T11:34:31.268Z,15.37
2022-12-18T11:37:01.986Z,15.33
2022-12-18T11:39:38.438Z,15.21
2022-12-18T11:42:18.327Z,15.09
2022-12-18T11:45:16.597Z,15.35
2022-12-18T11:48:11.089Z,15.17
2022-12-18T11:50:37.671Z,15.43
2022-12-18T11:53:06.509Z,15.17
2022-12-18T11:55:54.593Z,15.19
2022-12-18T11:58:39.059Z,15.12
2022-12-18T12:01:20.724Z,14.97
2022-12-18T12:04:02.264Z,15.48
2022-12-18T12:06:47.403Z,15.47
2022-12-18T12:09:29.750Z,15.66
2022-12-18T12:12:24.129Z,15.57
2022-12-18T12:15:14.205Z,15.33
2022-12-18T12:18:14.127Z,15.57
2022-12-18T12:20:49.124Z,15.44
2022-12-18T12:23:42.444Z,15.61
2022-12-18T12:26:42.730Z,15.62
2022-12-18T12:29:21.724Z,15.52
2022-12-18T12:32:18.634Z,15.55
2022-12-18T12:35:09.476Z,15.52
2022-12-18T12:37:45.594Z,15.49
2022-12-18T12:43:25.291Z,15.45
2022-12-18T12:45:57.281Z,15.66
2022-12-18T12:48:46.145Z,15.59
2022-12-18T12:51:42.474Z,15.86
2022-12-18T12:54:20.771Z,15.40
2022-12-18T12:56:58.620Z,15.94
2022-12-18T12:59:31.546Z,15.60
2022-12-18T13:02:21.843Z,15.31
2022-12-18T13:05:02.937Z,15.35
2022-12-18T13:07:46.839Z,15.69
2022-12-18T13:10:19.719Z,15.52
2022-12-18T13:12:57.914Z,15.54
2022-12-18T13:15:31.625Z,15.42
2022-12-18T13:18:09.167Z,15.54
2022-12-18T13:20:55.222Z,15.54
2022-12-18T13:23:26.566Z,15.35
2022-12-18T13:26:08.426Z,15.80
2022-12-18T13:28:54.154Z,15.66
2022-12-18T13:31:42.395Z,15.73
2022-12-18T13:34:26.185Z,15.54
2022-12-18T13:36:58.361Z,15.40
2022-12-18T13:42:19.894Z,15.53
2022-12-18T13:44:48.008Z,15.31
2022-12-18T13:47:34.567Z,15.23
2022-12-18T13:50:10.143Z,15.74
2022-12-18T13:52:40.414Z,15.54
2022-12-18T13:55:17.417Z,15.63
2022-12-18T13:57:44.661Z,15.39
2022-12-18T14:00:23.571Z,15.59
2022-12-18T14:02:51.220Z,15.23
2022-12-18T14:05:30.033Z,15.16
